createdAt,value
2022-11-16T00:02:11.399Z,9.90
2022-11-16T00:04:39.111Z,9.90
2022-11-16T00:07:06.646Z,9.90
2022-11-16T00:09:34.173Z,9.90
2022-11-16T00:12:04.966Z,9.90
2022-11-16T00:14:35.775Z,9.90
2022-11-16T00:17:04.509Z,9.90
2022-11-16T00:19:31.943Z,9.90
2022-11-16T00:21:59.566Z,9.90
2022-11-16T00:24:26.977Z,9.80
2022-11-16T00:26:56.092Z,9.80
2022-11-16T00:29:25.696Z,9.80
2022-11-16T00:31:53.880Z,9.80
2022-11-16T00:34:22.483Z,9.80
2022-11-16T00:36:50.727Z,9.80
2022-11-16T00:39:18.581Z,9.80
2022-11-16T00:41:46.350Z,9.80
2022-11-16T00:44:13.773Z,9.90
2022-11-16T00:46:41.444Z,9.90
2022-11-16T00:49:09.715Z,9.90
2022-11-16T00:51:37.825Z,9.90
2022-11-16T00:54:06.982Z,9.80
2022-11-16T00:56:35.155Z,9.80
2022-11-16T00:59:02.588Z,9.70
2022-11-16T01:01:30.160Z,9.80
2022-11-16T01:03:57.711Z,9.70
2022-11-16T01:06:25.277Z,9.60
2022-11-16T01:08:52.729Z,9.70
2022-11-16T01:11:39.094Z,9.60
2022-11-16T01:14:08.393Z,9.50
2022-11-16T01:16:36.296Z,9.50
2022-11-16T01:19:04.571Z,9.50
2022-11-16T01:21:32.041Z,9.50
2022-11-16T01:23:59.406Z,9.50
2022-11-16T01:26:26.839Z,9.50
2022-11-16T01:28:54.229Z,9.50
2022-11-16T01:31:21.612Z,9.50
2022-11-16T01:33:48.974Z,9.40
2022-11-16T01:36:17.333Z,9.50
2022-11-16T01:38:46.197Z,9.40
2022-11-16T01:41:16.122Z,9.40
2022-11-16T01:44:15.593Z,9.30
2022-11-16T01:46:42.971Z,9.30
2022-11-16T01:49:14.152Z,9.30
2022-11-16T01:51:43.312Z,9.30
2022-11-16T01:54:12.447Z,9.30
2022-11-16T01:56:42.860Z,9.30
2022-11-16T01:59:11.354Z,9.30
2022-11-16T02:01:38.976Z,9.30
2022-11-16T02:04:06.772Z,9.30
2022-11-16T02:06:59.109Z,9.30
2022-11-16T02:09:53.921Z,9.30
2022-11-16T02:12:39.260Z,9.30
2022-11-16T02:15:31.807Z,9.30
2022-11-16T02:18:11.999Z,9.30
2022-11-16T02:21:09.714Z,9.30
2022-11-16T02:23:43.356Z,9.30
2022-11-16T02:26:31.707Z,9.30
2022-11-16T02:29:22.977Z,9.20
2022-11-16T02:31:56.829Z,9.30
2022-11-16T02:34:28.521Z,9.30
2022-11-16T02:36:58.599Z,9.30
2022-11-16T02:39:28.917Z,9.40
2022-11-16T02:41:58.293Z,9.40
2022-11-16T02:44:40.127Z,9.40
2022-11-16T02:47:13.136Z,9.40
2022-11-16T02:49:46.821Z,9.40
2022-11-16T02:52:15.800Z,9.40
2022-11-16T02:54:43.232Z,9.40
2022-11-16T02:57:10.504Z,9.40
2022-11-16T02:59:44.729Z,9.40
2022-11-16T03:02:27.790Z,9.40
2022-11-16T03:05:04.841Z,9.50
2022-11-16T03:07:49.301Z,9.50
2022-11-16T03:10:38.774Z,9.50
2022-11-16T03:13:08.455Z,9.50
2022-11-16T03:15:39.460Z,9.40
2022-11-16T03:18:08.718Z,9.40
2022-11-16T03:20:39.038Z,9.50
2022-11-16T03:23:11.380Z,9.40
2022-11-16T03:25:48.988Z,9.40
2022-11-16T03:28:21.919Z,9.40
2022-11-16T03:31:04.280Z,9.50
2022-11-16T03:33:39.607Z,9.40
2022-11-16T03:36:13.086Z,9.40
2022-11-16T03:38:42.617Z,9.40
2022-11-16T03:41:11.202Z,9.40
2022-11-16T03:43:40.348Z,9.30
2022-11-16T03:46:07.879Z,9.40
2022-11-16T03:48:36.613Z,9.40
2022-11-16T03:51:05.143Z,9.40
2022-11-16T03:53:32.634Z,9.40
2022-11-16T03:56:00.053Z,9.40
2022-11-16T03:58:27.401Z,9.40
2022-11-16T04:00:54.837Z,9.40
2022-11-16T04:03:22.265Z,9.50
2022-11-16T04:06:08.309Z,9.50
2022-11-16T04:08:54.193Z,9.50
2022-11-16T04:11:41.683Z,9.50
2022-11-16T04:14:39.547Z,9.50
2022-11-16T04:17:33.483Z,9.50
2022-11-16T04:20:19.836Z,9.40
2022-11-16T04:23:15.387Z,9.50
2022-11-16T04:25:44.414Z,9.40
2022-11-16T04:28:14.553Z,9.40
2022-11-16T04:31:23.721Z,9.40
2022-11-16T04:34:11.136Z,9.40
2022-11-16T04:36:57.668Z,9.30
2022-11-16T04:39:24.979Z,9.40
2022-11-16T04:42:11.015Z,9.40
2022-11-16T04:44:56.797Z,9.30
2022-11-16T04:47:24.163Z,9.40
2022-11-16T04:49:51.531Z,9.40
2022-11-16T04:52:19.845Z,9.50
2022-11-16T04:54:47.144Z,9.40
2022-11-16T04:57:14.412Z,9.50
2022-11-16T04:59:41.774Z,9.40
2022-11-16T05:02:09.330Z,9.40
2022-11-16T05:04:41.436Z,9.40
2022-11-16T05:07:12.002Z,9.40
2022-11-16T05:09:44.973Z,9.40
2022-11-16T05:12:16.161Z,9.40
2022-11-16T05:14:43.963Z,9.40
2022-11-16T05:17:11.730Z,9.40
2022-11-16T05:19:57.812Z,9.30
2022-11-16T05:22:25.466Z,9.40
2022-11-16T05:24:53.408Z,9.30
2022-11-16T05:27:22.947Z,9.40
2022-11-16T05:29:50.724Z,9.30
2022-11-16T05:32:19.776Z,9.40
2022-11-16T05:34:47.444Z,9.40
2022-11-16T05:37:15.529Z,9.40
2022-11-16T05:39:43.258Z,9.30
2022-11-16T05:42:10.755Z,9.30
2022-11-16T05:44:38.167Z,9.40
2022-11-16T05:47:06.246Z,9.30
2022-11-16T05:49:33.577Z,9.40
2022-11-16T05:52:01.012Z,9.40
2022-11-16T05:54:28.394Z,9.40
2022-11-16T05:56:55.775Z,9.40
2022-11-16T05:59:24.126Z,9.30
2022-11-16T06:01:51.839Z,9.30
2022-11-16T06:04:24.792Z,9.30
2022-11-16T06:06:52.484Z,9.30
2022-11-16T06:09:20.226Z,9.30
2022-11-16T06:11:47.634Z,9.30
2022-11-16T06:14:15.001Z,9.30
2022-11-16T06:16:42.407Z,9.40
2022-11-16T06:19:09.814Z,9.40
2022-11-16T06:21:37.231Z,9.40
2022-11-16T06:24:09.072Z,9.40
2022-11-16T06:26:37.321Z,9.40
2022-11-16T06:29:04.824Z,9.30
2022-11-16T06:31:32.268Z,9.30
2022-11-16T06:33:59.732Z,9.20
2022-11-16T06:36:27.310Z,9.20
2022-11-16T06:38:54.742Z,9.20
2022-11-16T06:41:22.677Z,9.10
2022-11-16T06:43:49.993Z,9.20
2022-11-16T06:46:17.482Z,9.20
2022-11-16T06:48:44.929Z,9.10
2022-11-16T06:51:12.325Z,9.10
2022-11-16T06:53:39.678Z,9.10
2022-11-16T06:56:07.484Z,9.10
2022-11-16T06:58:35.238Z,9.10
2022-11-16T07:01:11.086Z,9.10
2022-11-16T07:03:39.311Z,9.10
2022-11-16T07:06:11.548Z,9.20
2022-11-16T07:08:39.374Z,9.20
2022-11-16T07:11:08.706Z,9.20
2022-11-16T07:13:37.761Z,9.20
2022-11-16T07:16:07.230Z,9.30
2022-11-16T07:18:37.019Z,9.30
2022-11-16T07:21:11.548Z,9.30
2022-11-16T07:23:39.678Z,9.20
2022-11-16T07:26:08.208Z,9.20
2022-11-16T07:28:36.002Z,9.30
2022-11-16T07:31:08.819Z,9.30
2022-11-16T07:33:36.982Z,9.30
2022-11-16T07:36:07.140Z,9.30
2022-11-16T07:38:35.098Z,9.30
2022-11-16T07:41:07.955Z,9.30
2022-11-16T07:43:35.399Z,9.30
2022-11-16T07:48:58.240Z,9.30
2022-11-16T07:51:25.657Z,9.30
2022-11-16T07:53:57.421Z,9.40
2022-11-16T07:56:25.353Z,9.30
2022-11-16T07:58:52.714Z,9.30
2022-11-16T08:01:20.668Z,9.30
2022-11-16T08:03:48.180Z,9.30
2022-11-16T08:06:18.519Z,9.30
2022-11-16T08:08:45.831Z,9.30
2022-11-16T08:11:13.731Z,9.20
2022-11-16T08:13:42.301Z,9.20
2022-11-16T08:16:14.376Z,9.20
2022-11-16T08:18:42.318Z,9.10
2022-11-16T08:21:12.622Z,9.10
2022-11-16T08:23:41.433Z,9.20
2022-11-16T08:26:14.318Z,9.20
2022-11-16T08:28:43.730Z,9.20
2022-11-16T08:31:14.912Z,9.20
2022-11-16T08:33:42.355Z,9.20
2022-11-16T08:36:14.375Z,9.20
2022-11-16T08:38:41.991Z,9.20
2022-11-16T08:41:09.412Z,9.20
2022-11-16T08:43:39.458Z,9.20
2022-11-16T08:46:08.038Z,9.20
2022-11-16T08:48:36.289Z,9.20
2022-11-16T08:51:20.731Z,9.20
2022-11-16T08:53:50.125Z,9.20
2022-11-16T08:56:18.546Z,9.20
2022-11-16T08:58:55.294Z,9.20
2022-11-16T09:01:28.148Z,9.20
2022-11-16T09:03:55.830Z,9.20
2022-11-16T09:06:24.887Z,9.20
2022-11-16T09:08:52.380Z,9.20
2022-11-16T09:11:22.276Z,9.30
2022-11-16T09:13:51.877Z,9.20
2022-11-16T09:16:21.047Z,9.30
2022-11-16T09:18:50.485Z,9.30
2022-11-16T09:21:23.303Z,9.30
2022-11-16T09:23:51.210Z,9.30
2022-11-16T09:26:21.450Z,9.30
2022-11-16T09:28:58.438Z,9.30
2022-11-16T09:31:30.376Z,9.40
2022-11-16T09:33:58.923Z,9.40
2022-11-16T09:36:28.853Z,9.50
2022-11-16T09:42:22.165Z,9.50
2022-11-16T09:45:05.043Z,9.60
2022-11-16T09:47:49.511Z,9.60
2022-11-16T09:50:26.308Z,9.60
2022-11-16T09:52:57.862Z,9.60
2022-11-16T09:55:33.644Z,9.70
2022-11-16T09:58:13.600Z,9.70
2022-11-16T10:00:46.814Z,9.90
2022-11-16T10:03:15.287Z,9.90
2022-11-16T10:05:52.094Z,9.90
2022-11-16T10:08:38.238Z,9.90
2022-11-16T10:11:17.249Z,9.90
2022-11-16T10:13:50.375Z,9.90
2022-11-16T10:16:46.065Z,10.00
2022-11-16T10:19:16.126Z,10.10
2022-11-16T10:21:52.381Z,10.10
2022-11-16T10:24:26.174Z,10.20
2022-11-16T10:26:55.232Z,10.20
2022-11-16T10:29:49.606Z,10.20
2022-11-16T10:32:28.828Z,10.30
2022-11-16T10:35:05.466Z,10.40
2022-11-16T10:37:37.618Z,10.50
2022-11-16T10:40:19.859Z,10.50
2022-11-16T10:43:10.265Z,10.50
2022-11-16T10:45:45.315Z,10.50
2022-11-16T10:48:41.331Z,10.60
2022-11-16T10:51:10.102Z,10.60
2022-11-16T10:53:41.543Z,10.70
2022-11-16T10:56:37.598Z,10.80
2022-11-16T10:59:10.613Z,10.90
2022-11-16T11:01:43.941Z,10.90
2022-11-16T11:04:31.568Z,10.90
2022-11-16T11:07:23.699Z,10.90
2022-11-16T11:09:54.938Z,10.90
2022-11-16T11:12:39.327Z,11.00
2022-11-16T11:15:12.637Z,11.00
2022-11-16T11:17:43.126Z,11.10
2022-11-16T11:20:16.850Z,11.00
2022-11-16T11:22:53.227Z,11.00
2022-11-16T11:25:20.657Z,11.00
2022-11-16T11:27:48.163Z,11.10
2022-11-16T11:30:22.289Z,11.10
2022-11-16T11:32:52.848Z,11.10
2022-11-16T11:35:32.402Z,11.10
2022-11-16T11:38:07.766Z,11.10
2022-11-16T11:40:36.194Z,11.20
2022-11-16T11:43:21.250Z,11.20
2022-11-16T11:46:15.335Z,11.30
2022-11-16T11:48:54.480Z,11.30
2022-11-16T11:51:27.540Z,11.40
2022-11-16T11:54:02.756Z,11.50
2022-11-16T11:56:33.197Z,11.50
2022-11-16T11:59:03.092Z,11.50
2022-11-16T12:01:44.297Z,11.70
2022-11-16T12:04:11.522Z,11.90
2022-11-16T12:06:52.203Z,12.20
2022-11-16T12:09:25.341Z,12.20
2022-11-16T12:12:17.744Z,12.00
2022-11-16T12:14:50.574Z,11.90
2022-11-16T12:17:35.990Z,11.80
2022-11-16T12:20:19.186Z,12.30
2022-11-16T12:23:19.284Z,13.10
2022-11-16T12:26:14.782Z,13.80
2022-11-16T12:28:50.835Z,14.30
2022-11-16T12:31:40.193Z,14.90
2022-11-16T12:34:28.961Z,15.20
2022-11-16T12:37:20.831Z,15.00
2022-11-16T12:40:14.130Z,15.10
2022-11-16T12:42:59.921Z,14.80
2022-11-16T12:45:48.063Z,14.90
2022-11-16T12:48:43.157Z,14.90
2022-11-16T12:51:26.403Z,14.90
2022-11-16T12:54:06.890Z,15.50
2022-11-16T12:57:15.489Z,15.70
2022-11-16T12:59:54.148Z,15.80
2022-11-16T13:02:43.328Z,15.00
2022-11-16T13:05:31.930Z,14.20
2022-11-16T13:08:17.429Z,14.10
2022-11-16T13:10:49.130Z,14.10
2022-11-16T13:13:41.157Z,13.70
2022-11-16T13:16:10.004Z,13.20
2022-11-16T13:18:41.799Z,12.90
2022-11-16T13:21:21.034Z,12.60
2022-11-16T13:24:20.629Z,12.40
2022-11-16T13:27:08.745Z,12.30
2022-11-16T13:30:13.844Z,12.20
2022-11-16T13:32:56.207Z,12.20
2022-11-16T13:35:25.532Z,12.20
2022-11-16T13:37:53.124Z,12.10
2022-11-16T13:40:22.006Z,12.00
2022-11-16T13:42:58.326Z,12.10
2022-11-16T13:45:30.979Z,12.00
2022-11-16T13:48:00.738Z,12.00
2022-11-16T13:50:37.955Z,11.90
2022-11-16T13:56:05.886Z,12.00
2022-11-16T13:58:35.801Z,11.90
2022-11-16T14:01:17.126Z,11.90
2022-11-16T14:03:51.570Z,11.80
2022-11-16T14:06:24.767Z,11.90
2022-11-16T14:08:56.217Z,11.90
2022-11-16T14:11:39.344Z,11.90
2022-11-16T14:14:30.113Z,11.90
2022-11-16T14:16:57.484Z,11.90
2022-11-16T14:19:44.315Z,11.90
2022-11-16T14:22:50.664Z,11.90
2022-11-16T14:25:29.736Z,11.90
2022-11-16T14:28:28.346Z,11.90
2022-11-16T14:31:14.773Z,11.90
2022-11-16T14:33:42.624Z,11.90
2022-11-16T14:36:11.294Z,11.90
2022-11-16T14:38:41.682Z,11.80
2022-11-16T14:41:21.056Z,11.80
2022-11-16T14:43:53.907Z,11.90
2022-11-16T14:46:22.968Z,11.80
2022-11-16T14:48:50.904Z,11.80
2022-11-16T14:51:29.203Z,11.80
2022-11-16T14:54:24.646Z,11.80
2022-11-16T14:57:02.973Z,11.80
2022-11-16T14:59:31.495Z,11.80
2022-11-16T15:02:05.027Z,11.80
2022-11-16T15:04:32.937Z,11.80
2022-11-16T15:07:05.177Z,11.80
2022-11-16T15:09:41.770Z,11.70
2022-11-16T15:12:37.225Z,11.70
2022-11-16T15:15:12.551Z,11.70
2022-11-16T15:17:41.996Z,11.70
2022-11-16T15:20:15.249Z,11.50
2022-11-16T15:22:45.521Z,11.60
2022-11-16T15:25:31.966Z,11.50
2022-11-16T15:28:05.822Z,11.50
2022-11-16T15:30:38.325Z,11.50
2022-11-16T15:33:22.465Z,11.50
2022-11-16T15:35:49.892Z,11.50
2022-11-16T15:38:17.209Z,11.40
2022-11-16T15:40:54.918Z,11.40
2022-11-16T15:43:25.913Z,11.40
2022-11-16T15:45:53.962Z,11.40
2022-11-16T15:48:23.964Z,11.30
2022-11-16T15:51:04.668Z,11.30
2022-11-16T15:53:47.371Z,11.30
2022-11-16T15:56:27.741Z,11.20
2022-11-16T15:59:01.251Z,11.20
2022-11-16T16:01:30.238Z,11.10
2022-11-16T16:04:07.752Z,11.10
2022-11-16T16:06:56.138Z,10.90
2022-11-16T16:09:39.219Z,10.80
2022-11-16T16:12:24.258Z,10.80
2022-11-16T16:14:52.522Z,10.70
2022-11-16T16:17:28.814Z,10.70
2022-11-16T16:20:01.848Z,10.70
2022-11-16T16:22:35.643Z,10.60
2022-11-16T16:25:05.328Z,10.50
2022-11-16T16:27:39.924Z,10.40
2022-11-16T16:30:08.686Z,10.40
2022-11-16T16:32:37.675Z,10.40
2022-11-16T16:35:08.087Z,10.40
2022-11-16T16:37:36.087Z,10.40
2022-11-16T16:40:04.418Z,10.50
2022-11-16T16:42:31.758Z,10.50
2022-11-16T16:45:00.518Z,10.50
2022-11-16T16:47:28.247Z,10.60
2022-11-16T16:49:55.698Z,10.60
2022-11-16T16:52:23.229Z,10.70
2022-11-16T16:54:50.616Z,10.70
2022-11-16T16:57:18.409Z,10.70
2022-11-16T16:59:48.224Z,10.70
2022-11-16T17:02:16.722Z,10.70
2022-11-16T17:04:46.487Z,10.70
2022-11-16T17:07:14.565Z,10.80
2022-11-16T17:09:42.338Z,10.80
2022-11-16T17:12:10.984Z,10.80
2022-11-16T17:14:38.385Z,10.80
2022-11-16T17:17:05.812Z,10.70
2022-11-16T17:19:33.187Z,10.80
2022-11-16T17:22:00.555Z,10.80
2022-11-16T17:24:27.936Z,10.80
2022-11-16T17:26:55.251Z,10.90
2022-11-16T17:29:22.631Z,10.90
2022-11-16T17:31:50.020Z,10.90
2022-11-16T17:34:17.446Z,10.90
2022-11-16T17:36:45.056Z,11.00
2022-11-16T17:39:12.500Z,11.10
2022-11-16T17:41:39.866Z,11.30
2022-11-16T17:44:07.546Z,11.10
2022-11-16T17:46:35.380Z,11.10
2022-11-16T17:49:02.906Z,11.10
2022-11-16T17:51:30.290Z,11.10
2022-11-16T17:53:57.954Z,11.00
2022-11-16T17:56:27.582Z,11.00
2022-11-16T17:58:56.287Z,11.00
2022-11-16T18:01:23.901Z,11.00
2022-11-16T18:03:51.357Z,10.90
2022-11-16T18:06:21.274Z,10.90
2022-11-16T18:08:49.697Z,10.80
2022-11-16T18:11:25.677Z,10.80
2022-11-16T18:13:55.727Z,10.70
2022-11-16T18:16:28.481Z,10.70
2022-11-16T18:18:58.444Z,10.70
2022-11-16T18:21:26.844Z,10.60
2022-11-16T18:23:54.315Z,10.60
2022-11-16T18:26:23.465Z,10.60
2022-11-16T18:28:52.307Z,10.50
2022-11-16T18:31:22.548Z,10.50
2022-11-16T18:33:50.281Z,10.60
2022-11-16T18:36:18.873Z,10.50
2022-11-16T18:38:46.784Z,10.60
2022-11-16T18:41:16.394Z,10.60
2022-11-16T18:43:58.570Z,10.50
2022-11-16T18:46:31.241Z,10.40
2022-11-16T18:48:59.203Z,10.40
2022-11-16T18:51:28.066Z,10.40
2022-11-16T18:53:56.146Z,10.50
2022-11-16T18:56:24.377Z,10.40
2022-11-16T18:58:52.955Z,10.40
2022-11-16T19:01:23.638Z,10.40
2022-11-16T19:03:52.636Z,10.40
2022-11-16T19:06:20.543Z,10.40
2022-11-16T19:08:55.859Z,10.30
2022-11-16T19:11:24.321Z,10.30
2022-11-16T19:13:54.302Z,10.30
2022-11-16T19:16:22.682Z,10.40
2022-11-16T19:18:50.163Z,10.20
2022-11-16T19:21:18.623Z,10.20
2022-11-16T19:23:48.235Z,10.20
2022-11-16T19:26:17.486Z,10.20
2022-11-16T19:28:46.681Z,10.10
2022-11-16T19:31:17.281Z,10.10
2022-11-16T19:33:45.609Z,10.10
2022-11-16T19:36:15.831Z,10.00
2022-11-16T19:38:44.741Z,10.00
2022-11-16T19:41:13.492Z,10.00
2022-11-16T19:43:41.037Z,9.90
2022-11-16T19:46:16.630Z,9.90
2022-11-16T19:48:45.927Z,9.90
2022-11-16T19:51:17.658Z,9.80
2022-11-16T19:53:45.177Z,9.90
2022-11-16T19:56:14.630Z,9.90
2022-11-16T19:58:43.096Z,9.80
2022-11-16T20:01:13.320Z,9.90
2022-11-16T20:03:42.229Z,9.90
2022-11-16T20:06:14.077Z,9.80
2022-11-16T20:08:43.390Z,9.90
2022-11-16T20:11:20.460Z,9.90
2022-11-16T20:13:49.320Z,9.90
2022-11-16T20:16:19.043Z,9.80
2022-11-16T20:18:47.635Z,9.80
2022-11-16T20:21:30.025Z,9.80
2022-11-16T20:24:03.035Z,9.80
2022-11-16T20:26:37.127Z,9.70
2022-11-16T20:29:04.476Z,9.70
2022-11-16T20:31:33.407Z,9.70
2022-11-16T20:34:05.839Z,9.80
2022-11-16T20:36:33.796Z,9.80
2022-11-16T20:39:01.608Z,9.80
2022-11-16T20:41:30.675Z,9.80
2022-11-16T20:43:59.912Z,9.90
2022-11-16T20:46:30.099Z,9.80
2022-11-16T20:48:59.467Z,9.80
2022-11-16T20:51:27.072Z,9.90
2022-11-16T20:53:55.365Z,9.90
2022-11-16T20:56:23.029Z,9.90
2022-11-16T20:58:50.663Z,9.90
2022-11-16T21:01:21.236Z,10.00
2022-11-16T21:03:49.122Z,10.00
2022-11-16T21:06:17.366Z,10.00
2022-11-16T21:08:44.794Z,10.10
2022-11-16T21:11:16.598Z,10.20
2022-11-16T21:14:06.188Z,10.10
2022-11-16T21:16:34.999Z,10.10
2022-11-16T21:19:03.055Z,10.10
2022-11-16T21:21:30.937Z,10.30
2022-11-16T21:23:58.612Z,10.30
2022-11-16T21:26:28.810Z,10.30
2022-11-16T21:28:57.293Z,10.40
2022-11-16T21:31:27.333Z,10.40
2022-11-16T21:33:55.625Z,10.40
2022-11-16T21:36:26.322Z,10.40
2022-11-16T21:38:54.128Z,10.40
2022-11-16T21:41:23.390Z,10.40
2022-11-16T21:43:51.094Z,10.40
2022-11-16T21:46:26.568Z,10.40
2022-11-16T21:48:56.506Z,10.30
2022-11-16T21:51:26.283Z,10.30
2022-11-16T21:53:54.485Z,10.30
2022-11-16T21:56:24.631Z,10.40
2022-11-16T21:58:53.097Z,10.40
2022-11-16T22:01:22.868Z,10.40
2022-11-16T22:04:10.823Z,10.50
2022-11-16T22:06:56.704Z,10.50
2022-11-16T22:09:24.109Z,10.40
2022-11-16T22:11:51.518Z,10.40
2022-11-16T22:14:18.941Z,10.50
2022-11-16T22:16:46.300Z,10.40
2022-11-16T22:19:13.683Z,10.50
2022-11-16T22:21:41.044Z,10.40
2022-11-16T22:24:08.612Z,10.50
2022-11-16T22:26:37.938Z,10.50
2022-11-16T22:29:05.325Z,10.60
2022-11-16T22:31:33.022Z,10.50
2022-11-16T22:34:00.456Z,10.60
2022-11-16T22:36:27.797Z,10.60
2022-11-16T22:38:57.064Z,10.60
2022-11-16T22:41:24.479Z,10.60
2022-11-16T22:43:51.886Z,10.70
2022-11-16T22:46:19.198Z,10.70
2022-11-16T22:48:47.893Z,10.70
2022-11-16T22:51:23.744Z,10.70
2022-11-16T22:53:59.501Z,10.80
2022-11-16T22:56:28.234Z,10.80
2022-11-16T22:58:56.130Z,10.70
2022-11-16T23:01:23.936Z,10.80
2022-11-16T23:03:51.481Z,10.80
2022-11-16T23:06:18.906Z,10.90
2022-11-16T23:08:46.422Z,10.80
2022-11-16T23:11:37.905Z,10.80
2022-11-16T23:14:25.654Z,10.80
2022-11-16T23:16:53.065Z,10.80
2022-11-16T23:19:40.195Z,10.80
2022-11-16T23:22:31.033Z,10.80
2022-11-16T23:25:16.859Z,10.80
2022-11-16T23:28:06.493Z,10.90
2022-11-16T23:30:35.374Z,10.90
2022-11-16T23:33:03.596Z,10.90
2022-11-16T23:35:30.977Z,10.90
2022-11-16T23:38:07.290Z,10.90
2022-11-16T23:40:39.629Z,10.90
2022-11-16T23:43:28.289Z,10.90
2022-11-16T23:45:55.654Z,10.90
2022-11-16T23:48:23.086Z,10.90
2022-11-16T23:50:50.493Z,10.90
2022-11-16T23:53:18.030Z,10.90
2022-11-16T23:55:45.415Z,10.90
2022-11-16T23:58:15.647Z,10.90
